createdAt,value
2023-01-17T00:02:17.939Z,3.61
2023-01-17T00:05:03.408Z,3.61
2023-01-17T00:07:52.134Z,3.53
2023-01-17T00:10:24.342Z,3.54
2023-01-17T00:13:00.074Z,3.48
2023-01-17T00:15:28.163Z,3.42
2023-01-17T00:18:01.713Z,3.43
2023-01-17T00:20:50.083Z,3.44
2023-01-17T00:23:41.517Z,3.40
2023-01-17T00:26:14.353Z,3.30
2023-01-17T00:28:42.282Z,3.34
2023-01-17T00:31:14.703Z,3.31
2023-01-17T00:33:41.421Z,3.17
2023-01-17T00:36:08.975Z,3.30
2023-01-17T00:38:39.833Z,3.24
2023-01-17T00:41:09.695Z,3.27
2023-01-17T00:43:55.076Z,3.22
2023-01-17T00:46:40.818Z,3.15
2023-01-17T00:49:26.970Z,3.16
2023-01-17T00:52:12.920Z,3.20
2023-01-17T00:54:58.275Z,3.25
2023-01-17T00:57:43.990Z,3.24
2023-01-17T01:00:36.042Z,3.15
2023-01-17T01:03:27.397Z,3.08
2023-01-17T01:06:15.254Z,3.03
2023-01-17T01:09:01.648Z,2.98
2023-01-17T01:11:50.472Z,3.02
2023-01-17T01:14:35.536Z,2.98
2023-01-17T01:17:21.259Z,3.06
2023-01-17T01:20:06.083Z,2.95
2023-01-17T01:22:51.380Z,2.94
2023-01-17T01:25:37.606Z,2.93
2023-01-17T01:28:31.806Z,2.86
2023-01-17T01:31:21.771Z,2.78
2023-01-17T01:33:51.565Z,2.77
2023-01-17T01:36:19.780Z,2.75
2023-01-17T01:38:46.478Z,2.84
2023-01-17T01:41:13.157Z,2.86
2023-01-17T01:43:47.537Z,2.90
2023-01-17T01:46:20.121Z,3.01
2023-01-17T01:49:05.140Z,3.07
2023-01-17T01:51:50.148Z,3.13
2023-01-17T01:54:23.602Z,3.02
2023-01-17T01:57:03.505Z,2.95
2023-01-17T01:59:32.280Z,2.86
2023-01-17T02:01:58.907Z,2.95
2023-01-17T02:04:32.878Z,2.91
2023-01-17T02:07:07.299Z,3.05
2023-01-17T02:09:34.631Z,2.97
2023-01-17T02:12:08.786Z,2.91
2023-01-17T02:14:35.325Z,2.90
2023-01-17T02:17:10.799Z,2.93
2023-01-17T02:19:51.248Z,2.95
2023-01-17T02:22:48.466Z,2.92
2023-01-17T02:25:36.858Z,2.95
2023-01-17T02:28:32.252Z,2.90
2023-01-17T02:31:24.545Z,2.75
2023-01-17T02:34:06.900Z,2.74
2023-01-17T02:36:37.979Z,2.70
2023-01-17T02:39:28.441Z,2.69
2023-01-17T02:42:02.392Z,2.74
2023-01-17T02:44:29.707Z,2.75
2023-01-17T02:46:58.228Z,2.77
2023-01-17T02:49:38.264Z,2.86
2023-01-17T02:52:06.180Z,2.86
2023-01-17T02:55:01.616Z,2.84
2023-01-17T02:57:51.909Z,2.93
2023-01-17T03:00:38.182Z,2.99
2023-01-17T03:03:18.022Z,3.02
2023-01-17T03:05:59.835Z,3.07
2023-01-17T03:08:27.686Z,3.16
2023-01-17T03:10:55.003Z,3.24
2023-01-17T03:13:24.631Z,3.30
2023-01-17T03:15:51.379Z,3.38
2023-01-17T03:18:18.069Z,3.45
2023-01-17T03:20:44.836Z,3.52
2023-01-17T03:23:14.862Z,3.51
2023-01-17T03:25:41.723Z,3.51
2023-01-17T03:28:14.053Z,3.55
2023-01-17T03:30:40.729Z,3.59
2023-01-17T03:33:07.476Z,3.56
2023-01-17T03:35:37.386Z,3.54
2023-01-17T03:38:04.005Z,3.50
2023-01-17T03:40:30.617Z,3.52
2023-01-17T03:42:57.692Z,3.61
2023-01-17T03:45:24.304Z,3.59
2023-01-17T03:47:51.463Z,3.58
2023-01-17T03:50:18.192Z,3.63
2023-01-17T03:52:44.808Z,3.63
2023-01-17T03:55:17.974Z,3.67
2023-01-17T03:57:44.749Z,3.70
2023-01-17T04:00:11.956Z,3.76
2023-01-17T04:02:38.624Z,3.71
2023-01-17T04:05:12.761Z,3.76
2023-01-17T04:07:39.312Z,3.87
2023-01-17T04:10:06.704Z,3.86
2023-01-17T04:12:36.399Z,3.92
2023-01-17T04:15:07.615Z,4.01
2023-01-17T04:17:34.309Z,4.03
2023-01-17T04:20:00.954Z,4.08
2023-01-17T04:22:27.583Z,4.10
2023-01-17T04:24:54.227Z,4.10
2023-01-17T04:27:20.890Z,4.10
2023-01-17T04:29:47.519Z,4.11
2023-01-17T04:32:14.868Z,4.12
2023-01-17T04:34:41.900Z,4.21
2023-01-17T04:37:11.281Z,4.26
2023-01-17T04:39:41.112Z,4.26
2023-01-17T04:42:07.752Z,4.26
2023-01-17T04:44:38.457Z,4.26
2023-01-17T04:47:06.656Z,4.24
2023-01-17T04:49:34.363Z,4.24
2023-01-17T04:52:00.856Z,4.26
2023-01-17T04:54:27.521Z,4.26
2023-01-17T04:56:54.152Z,4.24
2023-01-17T04:59:20.804Z,4.28
2023-01-17T05:01:49.532Z,4.27
2023-01-17T05:04:16.317Z,4.31
2023-01-17T05:06:47.481Z,4.32
2023-01-17T05:09:14.120Z,4.34
2023-01-17T05:11:40.727Z,4.32
2023-01-17T05:14:07.405Z,4.29
2023-01-17T05:16:34.005Z,4.22
2023-01-17T05:19:00.719Z,4.15
2023-01-17T05:21:27.477Z,4.05
2023-01-17T05:23:54.148Z,4.07
2023-01-17T05:26:20.810Z,3.97
2023-01-17T05:28:47.485Z,3.95
2023-01-17T05:31:14.306Z,3.99
2023-01-17T05:33:41.591Z,3.95
2023-01-17T05:36:08.976Z,3.97
2023-01-17T05:38:35.755Z,3.99
2023-01-17T05:41:04.759Z,3.98
2023-01-17T05:43:32.166Z,3.94
2023-01-17T05:45:58.846Z,3.99
2023-01-17T05:48:28.560Z,4.00
2023-01-17T05:50:57.639Z,4.01
2023-01-17T05:53:24.379Z,4.00
2023-01-17T05:55:51.260Z,4.00
2023-01-17T05:58:23.541Z,4.03
2023-01-17T06:00:50.354Z,4.01
2023-01-17T06:03:17.321Z,4.02
2023-01-17T06:05:45.018Z,3.98
2023-01-17T06:08:11.728Z,3.92
2023-01-17T06:10:38.453Z,3.94
2023-01-17T06:13:12.391Z,3.94
2023-01-17T06:15:51.389Z,3.92
2023-01-17T06:18:18.527Z,3.90
2023-01-17T06:20:45.590Z,3.91
2023-01-17T06:23:14.905Z,3.91
2023-01-17T06:25:46.058Z,3.93
2023-01-17T06:28:17.123Z,3.90
2023-01-17T06:30:46.830Z,3.88
2023-01-17T06:33:18.819Z,3.87
2023-01-17T06:35:53.228Z,3.89
2023-01-17T06:38:20.215Z,3.91
2023-01-17T06:40:47.819Z,3.98
2023-01-17T06:43:14.539Z,3.98
2023-01-17T06:45:42.828Z,3.92
2023-01-17T06:48:17.114Z,4.00
2023-01-17T06:50:43.999Z,3.99
2023-01-17T06:53:15.138Z,4.00
2023-01-17T06:55:55.668Z,4.03
2023-01-17T06:58:22.174Z,4.06
2023-01-17T07:00:48.909Z,4.03
2023-01-17T07:03:21.806Z,4.07
2023-01-17T07:05:58.734Z,4.09
2023-01-17T07:08:28.778Z,4.09
2023-01-17T07:11:05.297Z,4.16
2023-01-17T07:13:36.357Z,4.14
2023-01-17T07:16:04.691Z,4.16
2023-01-17T07:18:34.524Z,4.14
2023-01-17T07:21:04.014Z,4.13
2023-01-17T07:23:30.640Z,4.13
2023-01-17T07:25:59.534Z,4.12
2023-01-17T07:28:28.120Z,4.12
2023-01-17T07:30:54.863Z,4.09
2023-01-17T07:33:31.704Z,4.08
2023-01-17T07:35:59.083Z,4.03
2023-01-17T07:38:25.738Z,4.09
2023-01-17T07:40:52.358Z,4.11
2023-01-17T07:43:18.994Z,4.10
2023-01-17T07:45:52.093Z,4.07
2023-01-17T07:48:20.660Z,4.01
2023-01-17T07:51:01.375Z,3.98
2023-01-17T07:53:30.389Z,3.98
2023-01-17T07:56:04.726Z,4.02
2023-01-17T07:58:32.575Z,4.00
2023-01-17T08:01:07.714Z,3.97
2023-01-17T08:03:39.727Z,3.95
2023-01-17T08:06:25.984Z,3.99
2023-01-17T08:08:55.218Z,4.00
2023-01-17T08:11:21.944Z,4.04
2023-01-17T08:13:54.045Z,4.08
2023-01-17T08:16:20.772Z,4.16
2023-01-17T08:18:47.474Z,4.29
2023-01-17T08:21:16.811Z,4.43
2023-01-17T08:23:47.386Z,4.51
2023-01-17T08:26:21.516Z,4.60
2023-01-17T08:29:00.630Z,4.63
2023-01-17T08:31:35.441Z,4.73
2023-01-17T08:34:05.484Z,4.71
2023-01-17T08:36:32.383Z,4.69
2023-01-17T08:38:59.263Z,4.71
2023-01-17T08:41:29.292Z,4.67
2023-01-17T08:43:55.966Z,4.64
2023-01-17T08:46:29.991Z,4.66
2023-01-17T08:49:00.038Z,4.67
2023-01-17T08:51:28.037Z,4.67
2023-01-17T08:53:56.365Z,4.65
2023-01-17T08:56:27.052Z,4.73
2023-01-17T08:58:54.219Z,4.75
2023-01-17T09:01:20.936Z,4.79
2023-01-17T09:03:51.541Z,4.89
2023-01-17T09:06:18.417Z,4.90
2023-01-17T09:08:47.156Z,4.89
2023-01-17T09:11:20.227Z,4.87
2023-01-17T09:13:46.831Z,4.84
2023-01-17T09:16:13.772Z,4.79
2023-01-17T09:18:40.496Z,4.75
2023-01-17T09:21:21.370Z,4.68
2023-01-17T09:23:48.039Z,4.65
2023-01-17T09:26:28.573Z,4.63
2023-01-17T09:28:55.538Z,4.65
2023-01-17T09:31:22.801Z,4.65
2023-01-17T09:33:54.945Z,4.67
2023-01-17T09:36:22.278Z,4.65
2023-01-17T09:38:57.803Z,4.61
2023-01-17T09:41:30.570Z,4.57
2023-01-17T09:44:01.650Z,4.53
2023-01-17T09:46:36.680Z,4.48
2023-01-17T09:49:10.789Z,4.46
2023-01-17T09:51:37.421Z,4.43
2023-01-17T09:54:04.863Z,4.36
2023-01-17T09:56:41.900Z,4.20
2023-01-17T09:59:21.095Z,4.06
2023-01-17T10:02:25.827Z,3.91
2023-01-17T10:05:06.689Z,3.94
2023-01-17T10:07:41.953Z,3.97
2023-01-17T10:10:28.923Z,3.98
2023-01-17T10:13:10.277Z,3.87
2023-01-17T10:15:48.535Z,3.75
2023-01-17T10:18:33.599Z,3.74
2023-01-17T10:21:27.830Z,3.81
2023-01-17T10:24:21.211Z,3.85
2023-01-17T10:26:52.965Z,3.82
2023-01-17T10:29:21.293Z,3.85
2023-01-17T10:32:00.122Z,3.84
2023-01-17T10:34:47.924Z,3.89
2023-01-17T10:37:29.867Z,3.90
2023-01-17T10:40:02.582Z,3.90
2023-01-17T10:42:49.736Z,3.99
2023-01-17T10:45:31.555Z,3.93
2023-01-17T10:48:36.785Z,3.87
2023-01-17T10:51:49.987Z,3.85
2023-01-17T10:54:38.791Z,3.83
2023-01-17T10:57:05.636Z,3.82
2023-01-17T10:59:35.139Z,3.79
2023-01-17T11:02:07.585Z,3.79
2023-01-17T11:04:37.289Z,3.74
2023-01-17T11:07:22.273Z,3.78
2023-01-17T11:09:59.287Z,3.83
2023-01-17T11:12:45.897Z,3.92
2023-01-17T11:15:12.474Z,3.94
2023-01-17T11:17:50.051Z,3.85
2023-01-17T11:20:28.133Z,4.01
2023-01-17T11:23:12.856Z,3.67
2023-01-17T11:25:39.677Z,3.45
2023-01-17T11:28:17.967Z,3.45
2023-01-17T11:30:56.877Z,3.34
2023-01-17T11:33:56.870Z,3.35
2023-01-17T11:36:31.725Z,3.38
2023-01-17T11:39:05.087Z,3.34
2023-01-17T11:41:42.097Z,3.36
2023-01-17T11:44:31.675Z,3.09
2023-01-17T11:47:19.303Z,2.79
2023-01-17T11:49:50.401Z,2.75
2023-01-17T11:52:31.912Z,2.67
2023-01-17T11:54:59.265Z,2.73
2023-01-17T11:57:35.014Z,2.71
2023-01-17T12:00:24.245Z,2.70
2023-01-17T12:03:10.048Z,2.66
2023-01-17T12:05:58.109Z,2.64
2023-01-17T12:08:39.938Z,2.65
2023-01-17T12:11:12.751Z,2.62
2023-01-17T12:14:07.401Z,2.70
2023-01-17T12:16:55.931Z,2.79
2023-01-17T12:19:55.755Z,2.98
2023-01-17T12:22:48.555Z,3.34
2023-01-17T12:25:23.667Z,3.53
2023-01-17T12:27:59.974Z,3.66
2023-01-17T12:30:46.915Z,3.78
2023-01-17T12:33:13.400Z,4.47
2023-01-17T12:35:46.956Z,4.85
2023-01-17T12:38:31.749Z,5.30
2023-01-17T12:41:06.046Z,5.13
2023-01-17T12:43:38.122Z,4.91
2023-01-17T12:46:14.492Z,4.79
2023-01-17T12:48:44.691Z,4.76
2023-01-17T12:51:37.704Z,4.42
2023-01-17T12:54:18.095Z,4.26
2023-01-17T12:56:59.381Z,4.22
2023-01-17T12:59:32.793Z,4.42
2023-01-17T13:02:04.098Z,4.19
2023-01-17T13:04:33.833Z,4.20
2023-01-17T13:07:00.600Z,3.98
2023-01-17T13:09:35.275Z,3.84
2023-01-17T13:12:22.864Z,3.75
2023-01-17T13:14:49.771Z,3.67
2023-01-17T13:17:42.929Z,3.63
2023-01-17T13:20:28.878Z,3.62
2023-01-17T13:23:05.384Z,3.63
2023-01-17T13:25:41.459Z,3.68
2023-01-17T13:28:11.017Z,3.75
2023-01-17T13:30:57.826Z,3.73
2023-01-17T13:33:57.850Z,3.67
2023-01-17T13:36:46.348Z,3.65
2023-01-17T13:39:34.988Z,3.61
2023-01-17T13:42:10.976Z,3.58
2023-01-17T13:44:43.630Z,3.54
2023-01-17T13:47:10.239Z,3.51
2023-01-17T13:49:56.477Z,3.47
2023-01-17T13:52:25.974Z,3.45
2023-01-17T13:54:58.245Z,3.43
2023-01-17T13:57:40.756Z,3.46
2023-01-17T14:00:16.361Z,3.48
2023-01-17T14:02:48.421Z,3.43
2023-01-17T14:05:44.339Z,3.45
2023-01-17T14:08:20.650Z,3.45
2023-01-17T14:10:54.627Z,3.49
2023-01-17T14:13:32.823Z,3.53
2023-01-17T14:16:01.212Z,3.52
2023-01-17T14:18:41.126Z,3.53
2023-01-17T14:21:27.657Z,3.58
2023-01-17T14:23:54.374Z,3.62
2023-01-17T14:26:32.751Z,3.61
2023-01-17T14:29:37.640Z,3.61
2023-01-17T14:32:07.069Z,3.61
2023-01-17T14:34:34.776Z,3.50
2023-01-17T14:37:15.944Z,3.62
2023-01-17T14:39:53.421Z,3.62
2023-01-17T14:42:23.940Z,3.62
2023-01-17T14:45:04.345Z,3.61
2023-01-17T14:47:36.039Z,3.59
2023-01-17T14:50:20.455Z,3.64
2023-01-17T14:53:08.314Z,3.62
2023-01-17T14:55:35.713Z,3.62
2023-01-17T14:58:02.462Z,3.62
2023-01-17T15:00:30.635Z,3.56
2023-01-17T15:03:00.156Z,3.49
2023-01-17T15:05:28.996Z,3.45
2023-01-17T15:07:57.745Z,3.43
2023-01-17T15:10:29.680Z,3.34
2023-01-17T15:13:09.812Z,3.20
2023-01-17T15:15:39.820Z,3.11
2023-01-17T15:18:19.464Z,2.99
2023-01-17T15:21:02.296Z,2.86
2023-01-17T15:23:46.013Z,2.77
2023-01-17T15:26:21.865Z,2.72
2023-01-17T15:28:49.734Z,2.68
2023-01-17T15:31:25.955Z,2.60
2023-01-17T15:33:59.851Z,2.49
2023-01-17T15:36:33.200Z,2.36
2023-01-17T15:39:08.538Z,2.26
2023-01-17T15:41:42.684Z,2.16
2023-01-17T15:44:22.025Z,2.04
2023-01-17T15:46:51.022Z,1.92
2023-01-17T15:49:23.543Z,1.83
2023-01-17T15:52:08.762Z,1.75
2023-01-17T15:54:40.475Z,1.69
2023-01-17T15:57:27.393Z,1.71
2023-01-17T15:59:53.944Z,1.67
2023-01-17T16:02:30.225Z,1.73
2023-01-17T16:05:15.486Z,1.79
2023-01-17T16:07:42.176Z,1.81
2023-01-17T16:10:18.135Z,1.78
2023-01-17T16:12:46.535Z,1.72
2023-01-17T16:15:14.391Z,1.66
2023-01-17T16:17:48.524Z,1.58
2023-01-17T16:20:29.607Z,1.49
2023-01-17T16:22:56.512Z,1.38
2023-01-17T16:25:32.438Z,1.28
2023-01-17T16:28:08.628Z,1.15
2023-01-17T16:30:35.397Z,1.06
2023-01-17T16:33:03.187Z,0.92
2023-01-17T16:35:31.401Z,0.81
2023-01-17T16:38:01.198Z,0.76
2023-01-17T16:40:34.606Z,0.74
2023-01-17T16:43:01.509Z,0.77
2023-01-17T16:45:33.371Z,0.75
2023-01-17T16:48:02.119Z,0.64
2023-01-17T16:50:28.740Z,0.55
2023-01-17T16:52:57.011Z,0.48
2023-01-17T16:55:25.418Z,0.43
2023-01-17T16:57:58.734Z,0.41
2023-01-17T17:00:26.868Z,0.31
2023-01-17T17:03:02.851Z,0.31
2023-01-17T17:05:30.713Z,0.25
2023-01-17T17:07:57.599Z,0.25
2023-01-17T17:10:25.432Z,0.18
2023-01-17T17:12:55.344Z,0.10
2023-01-17T17:15:21.970Z,0.05
2023-01-17T17:17:48.723Z,-0.04
2023-01-17T17:20:24.520Z,-0.13
2023-01-17T17:22:52.204Z,-0.24
2023-01-17T17:25:19.492Z,-0.33
2023-01-17T17:27:46.159Z,-0.41
2023-01-17T17:30:13.071Z,-0.46
2023-01-17T17:32:45.013Z,-0.52
2023-01-17T17:35:11.962Z,-0.57
2023-01-17T17:37:38.653Z,-0.59
2023-01-17T17:40:09.213Z,-0.65
2023-01-17T17:42:35.841Z,-0.65
2023-01-17T17:45:02.681Z,-0.67
2023-01-17T17:47:33.508Z,-0.73
2023-01-17T17:50:00.189Z,-0.79
2023-01-17T17:52:28.159Z,-0.91
2023-01-17T17:54:54.948Z,-0.97
2023-01-17T17:57:22.729Z,-0.98
2023-01-17T17:59:49.428Z,-0.92
2023-01-17T18:02:16.646Z,-1.00
2023-01-17T18:04:43.313Z,-1.08
2023-01-17T18:07:09.975Z,-1.05
2023-01-17T18:09:36.569Z,-1.09
2023-01-17T18:12:03.570Z,-1.13
2023-01-17T18:14:33.328Z,-1.16
2023-01-17T18:17:00.295Z,-1.19
2023-01-17T18:19:27.174Z,-1.21
2023-01-17T18:21:54.428Z,-1.26
2023-01-17T18:24:23.430Z,-1.30
2023-01-17T18:26:57.226Z,-1.34
2023-01-17T18:29:25.565Z,-1.42
2023-01-17T18:31:53.728Z,-1.43
2023-01-17T18:34:24.393Z,-1.43
2023-01-17T18:36:51.960Z,-1.45
2023-01-17T18:39:25.299Z,-1.35
2023-01-17T18:41:52.554Z,-1.34
2023-01-17T18:44:22.674Z,-1.43
2023-01-17T18:46:58.236Z,-1.52
2023-01-17T18:49:25.004Z,-1.58
2023-01-17T18:51:51.957Z,-1.62
2023-01-17T18:54:20.305Z,-1.67
2023-01-17T18:56:49.366Z,-1.70
2023-01-17T18:59:18.569Z,-1.69
2023-01-17T19:01:45.906Z,-1.72
2023-01-17T19:04:17.450Z,-1.75
2023-01-17T19:06:46.613Z,-1.75
2023-01-17T19:09:14.799Z,-1.79
2023-01-17T19:11:46.328Z,-1.83
2023-01-17T19:14:13.381Z,-1.86
2023-01-17T19:16:43.945Z,-1.89
2023-01-17T19:19:14.045Z,-1.75
2023-01-17T19:21:40.959Z,-1.82
2023-01-17T19:24:08.268Z,-1.88
2023-01-17T19:26:34.934Z,-1.93
2023-01-17T19:29:05.380Z,-1.99
2023-01-17T19:31:37.349Z,-2.02
2023-01-17T19:34:06.867Z,-2.07
2023-01-17T19:36:35.761Z,-2.10
2023-01-17T19:39:06.510Z,-2.13
2023-01-17T19:41:35.664Z,-2.08
2023-01-17T19:44:08.002Z,-2.17
2023-01-17T19:46:35.349Z,-2.20
2023-01-17T19:49:06.296Z,-2.23
2023-01-17T19:51:33.016Z,-2.15
2023-01-17T19:54:04.198Z,-2.24
2023-01-17T19:56:31.165Z,-2.21
2023-01-17T19:59:01.350Z,-2.18
2023-01-17T20:01:31.258Z,-2.29
2023-01-17T20:03:58.842Z,-2.35
2023-01-17T20:06:33.338Z,-2.32
2023-01-17T20:09:01.457Z,-2.35
2023-01-17T20:11:28.639Z,-2.40
2023-01-17T20:13:57.769Z,-2.46
2023-01-17T20:16:26.876Z,-2.44
2023-01-17T20:18:53.700Z,-2.22
2023-01-17T20:21:26.056Z,-1.96
2023-01-17T20:23:54.593Z,-2.16
2023-01-17T20:26:31.214Z,-2.33
2023-01-17T20:28:58.004Z,-2.40
2023-01-17T20:31:28.663Z,-2.47
2023-01-17T20:33:56.508Z,-2.54
2023-01-17T20:36:26.928Z,-2.59
2023-01-17T20:38:54.549Z,-2.40
2023-01-17T20:41:23.846Z,-2.43
2023-01-17T20:43:53.369Z,-2.47
2023-01-17T20:46:22.589Z,-2.58
2023-01-17T20:48:54.371Z,-2.62
2023-01-17T20:51:22.270Z,-2.67
2023-01-17T20:53:56.050Z,-2.73
2023-01-17T20:56:24.221Z,-2.76
2023-01-17T20:58:54.965Z,-2.78
2023-01-17T21:01:24.896Z,-2.76
2023-01-17T21:03:54.051Z,-2.72
2023-01-17T21:06:22.494Z,-2.81
2023-01-17T21:08:59.068Z,-2.83
2023-01-17T21:11:28.828Z,-2.84
2023-01-17T21:13:56.343Z,-2.88
2023-01-17T21:16:23.819Z,-2.87
2023-01-17T21:18:51.927Z,-2.90
2023-01-17T21:21:23.962Z,-2.92
2023-01-17T21:23:52.518Z,-2.89
2023-01-17T21:26:20.627Z,-2.91
2023-01-17T21:28:48.790Z,-2.89
2023-01-17T21:31:24.329Z,-2.92
2023-01-17T21:33:59.568Z,-3.02
2023-01-17T21:36:29.637Z,-3.04
2023-01-17T21:38:59.447Z,-2.93
2023-01-17T21:41:29.067Z,-2.87
2023-01-17T21:44:00.683Z,-2.91
2023-01-17T21:46:28.824Z,-2.98
2023-01-17T21:48:58.857Z,-2.89
2023-01-17T21:51:45.911Z,-2.73
2023-01-17T21:54:15.516Z,-2.71
2023-01-17T21:57:03.176Z,-2.95
2023-01-17T21:59:32.929Z,-2.98
2023-01-17T22:02:03.079Z,-2.95
2023-01-17T22:04:30.025Z,-2.96
2023-01-17T22:06:56.701Z,-3.00
2023-01-17T22:09:23.349Z,-3.01
2023-01-17T22:11:49.996Z,-3.21
2023-01-17T22:14:16.668Z,-3.19
2023-01-17T22:16:43.577Z,-3.10
2023-01-17T22:19:10.259Z,-3.10
2023-01-17T22:21:37.467Z,-3.13
2023-01-17T22:24:05.333Z,-3.11
2023-01-17T22:26:32.154Z,-3.21
2023-01-17T22:29:05.379Z,-3.17
2023-01-17T22:31:32.067Z,-3.16
2023-01-17T22:34:04.238Z,-3.12
2023-01-17T22:36:35.022Z,-3.12
2023-01-17T22:39:02.128Z,-3.12
2023-01-17T22:41:37.422Z,-3.10
2023-01-17T22:44:11.329Z,-2.91
2023-01-17T22:46:39.276Z,-3.01
2023-01-17T22:49:08.853Z,-3.01
2023-01-17T22:51:46.009Z,-3.04
2023-01-17T22:54:13.195Z,-3.08
2023-01-17T22:56:39.940Z,-2.81
2023-01-17T22:59:11.733Z,-2.67
2023-01-17T23:01:41.708Z,-2.83
2023-01-17T23:04:16.080Z,-2.94
2023-01-17T23:06:42.947Z,-2.94
2023-01-17T23:09:19.812Z,-3.08
2023-01-17T23:11:53.612Z,-3.10
2023-01-17T23:14:28.602Z,-3.12
2023-01-17T23:17:21.410Z,-3.12
2023-01-17T23:19:53.153Z,-2.80
2023-01-17T23:22:27.014Z,-2.72
2023-01-17T23:25:04.176Z,-2.60
2023-01-17T23:27:58.870Z,-2.76
2023-01-17T23:30:34.874Z,-2.95
2023-01-17T23:33:04.505Z,-3.04
2023-01-17T23:35:41.769Z,-2.93
2023-01-17T23:38:29.459Z,-3.12
2023-01-17T23:41:24.898Z,-3.10
2023-01-17T23:43:53.581Z,-3.16
2023-01-17T23:46:31.632Z,-2.99
2023-01-17T23:49:05.324Z,-3.07
2023-01-17T23:51:35.154Z,-3.21
2023-01-17T23:54:05.882Z,-3.16
2023-01-17T23:56:33.758Z,-3.19
2023-01-17T23:59:02.295Z,-3.26
